Time;durP1;ratioP1;P1;durP2;ratioP2;P2;SDS_P1;SDS_P2;PMS_P1;PMS_P2;Temp;Humidity;BMP_temperature;BMP_pressure;BME280_temperature;BME280_humidity;BME280_pressure;Samples;Min_cycle;Max_cycle;Signal;HPM_P1;HPM_P2
2024/01/31 00:12:53;;;;;;;109.07;74.00;;;;;;;22.27;52.63;102178.50;31375257;28;20246;-59
2024/01/31 00:27:56;;;;;;;98.50;62.72;;;;;;;22.73;51.59;102181.97;31354307;28;20231;-60
2024/01/31 00:42:59;;;;;;;76.75;52.47;;;;;;;23.00;50.51;102191.63;31398684;28;20633;-60
2024/01/31 00:58:02;;;;;;;69.70;48.20;;;;;;;23.17;50.05;102192.59;31428204;28;20226;-60
2024/01/31 01:13:05;;;;;;;58.35;41.08;;;;;;;23.31;49.27;102192.53;31418113;28;20669;-59
2024/01/31 01:28:08;;;;;;;54.90;37.47;;;;;;;23.40;49.46;102203.97;31388351;28;20206;-53
2024/01/31 01:43:16;;;;;;;46.10;33.53;;;;;;;23.51;48.63;102219.63;31393842;28;20227;-55
2024/01/31 01:58:19;;;;;;;41.13;29.67;;;;;;;23.57;48.75;102224.00;31390102;28;20223;-60
2024/01/31 02:13:23;;;;;;;38.75;27.23;;;;;;;23.61;48.40;102244.13;31405486;28;20522;-60
2024/01/31 02:28:26;;;;;;;32.30;23.13;;;;;;;23.62;48.50;102238.09;31393664;28;20204;-56
2024/01/31 02:43:29;;;;;;;31.38;20.70;;;;;;;23.70;48.25;102239.31;31395751;28;20223;-54
2024/01/31 02:58:31;;;;;;;26.50;19.52;;;;;;;23.74;47.88;102252.56;31401604;28;20619;-60
2024/01/31 03:13:35;;;;;;;24.20;18.10;;;;;;;23.76;47.97;102243.69;31468288;28;20517;-54
2024/01/31 03:28:38;;;;;;;23.60;16.08;;;;;;;23.77;47.62;102253.91;31413347;28;20203;-63
2024/01/31 03:43:41;;;;;;;21.08;13.90;;;;;;;23.80;47.43;102261.78;31442070;28;20227;-56
2024/01/31 03:58:44;;;;;;;27.60;18.20;;;;;;;23.90;47.59;102250.13;31381500;28;20281;-59
2024/01/31 04:13:48;;;;;;;59.85;39.28;;;;;;;24.07;48.19;102226.63;31370777;28;20518;-57
2024/01/31 04:28:51;;;;;;;51.38;35.35;;;;;;;24.05;47.48;102212.75;31378489;28;20261;-60
2024/01/31 04:43:54;;;;;;;106.68;51.92;;;;;;;24.11;49.66;102230.50;31359001;28;20237;-61
2024/01/31 04:58:57;;;;;;;92.50;45.90;;;;;;;24.49;48.55;102210.94;31362930;28;20519;-61
2024/01/31 05:14:00;;;;;;;87.05;43.28;;;;;;;24.58;47.90;102223.16;31355772;28;20227;-60
2024/01/31 05:29:03;;;;;;;74.80;39.83;;;;;;;24.61;47.68;102215.97;31377649;28;20202;-61
2024/01/31 05:44:06;;;;;;;61.65;34.00;;;;;;;24.56;47.54;102219.81;31403936;28;20223;-61
2024/01/31 05:59:09;;;;;;;60.67;34.40;;;;;;;24.43;47.66;102212.22;31396561;28;20220;-61
2024/01/31 06:14:12;;;;;;;56.20;32.42;;;;;;;24.33;47.66;102232.47;31389903;28;20650;-61
2024/01/31 06:29:18;;;;;;;50.45;28.05;;;;;;;24.19;48.08;102224.84;31385746;28;20513;-61
2024/01/31 06:44:21;;;;;;;47.75;27.90;;;;;;;24.05;48.31;102223.28;31366387;28;20226;-57
2024/01/31 06:59:24;;;;;;;42.35;26.17;;;;;;;23.87;48.29;102228.06;31368474;28;20619;-59
2024/01/31 07:14:30;;;;;;;40.95;23.77;;;;;;;23.75;48.55;102219.28;31369676;28;20238;-59
2024/01/31 07:29:33;;;;;;;39.20;23.75;;;;;;;23.60;48.85;102222.53;31372143;28;20213;-60
2024/01/31 07:44:36;;;;;;;35.30;22.35;;;;;;;23.45;49.03;102227.41;31349854;28;20223;-59
2024/01/31 07:59:39;;;;;;;31.65;20.77;;;;;;;23.33;49.58;102235.69;31354233;28;20225;-60
2024/01/31 08:14:42;;;;;;;34.53;21.13;;;;;;;23.34;48.77;102257.25;31344862;28;20235;-53
2024/01/31 08:29:45;;;;;;;29.13;18.80;;;;;;;23.27;49.16;102295.78;31347824;28;20543;-62
2024/01/31 08:44:48;;;;;;;30.33;18.35;;;;;;;23.16;49.16;102310.22;31372720;28;20232;-62
2024/01/31 08:59:51;;;;;;;30.02;18.40;;;;;;;23.01;49.89;102319.09;31320257;28;20512;-57
2024/01/31 09:14:54;;;;;;;24.27;16.63;;;;;;;22.90;50.20;102333.81;31346971;28;20236;-59
2024/01/31 09:29:57;;;;;;;23.92;15.65;;;;;;;22.77;50.13;102307.97;31333245;28;20191;-60
2024/01/31 09:45:00;;;;;;;23.63;15.27;;;;;;;22.72;49.75;102285.31;31330457;28;20251;-61
2024/01/31 10:00:05;;;;;;;19.90;14.27;;;;;;;22.63;49.79;102267.38;31332263;28;20635;-61
2024/01/31 10:15:10;;;;;;;20.75;13.52;;;;;;;22.52;50.05;102254.56;31309970;28;20224;-58
2024/01/31 10:30:14;;;;;;;20.73;12.40;;;;;;;22.54;49.86;102252.25;31217095;28;20200;-62
2024/01/31 10:45:18;;;;;;;19.65;12.52;;;;;;;22.55;49.15;102230.38;31215752;28;20224;-57
2024/01/31 11:00:28;;;;;;;18.55;11.68;;;;;;;22.45;49.27;102203.09;31211639;28;20851;-59
2024/01/31 11:15:32;;;;;;;18.25;11.07;;;;;;;22.39;49.46;102170.28;31205207;28;20651;-55
2024/01/31 11:30:35;;;;;;;15.13;10.40;;;;;;;22.31;49.56;102177.56;31216231;28;20205;-57
2024/01/31 11:45:39;;;;;;;14.55;10.07;;;;;;;22.23;50.05;102161.28;31228355;28;20234;-61
2024/01/31 12:00:42;;;;;;;14.25;9.82;;;;;;;22.20;49.99;102138.41;31262112;28;20216;-55
2024/01/31 12:15:46;;;;;;;13.15;8.88;;;;;;;22.14;50.11;102116.97;31254949;28;20230;-53
2024/01/31 12:30:49;;;;;;;11.38;8.50;;;;;;;22.06;50.09;102088.22;31445177;28;20203;-58
2024/01/31 12:45:52;;;;;;;12.63;8.30;;;;;;;22.01;50.24;102042.94;31453784;28;20231;-58
2024/01/31 13:00:56;;;;;;;11.90;8.15;;;;;;;21.98;50.42;102014.34;31453459;28;20224;-61
2024/01/31 13:15:59;;;;;;;11.50;7.43;;;;;;;21.92;50.16;101979.63;31456162;28;20289;-59
2024/01/31 13:31:02;;;;;;;10.13;7.20;;;;;;;21.90;50.28;101969.75;31445006;28;20305;-57
2024/01/31 13:46:06;;;;;;;11.35;7.88;;;;;;;21.83;50.45;101967.34;31423764;28;20231;-53
2024/01/31 14:01:09;;;;;;;9.57;6.50;;;;;;;22.22;49.92;101954.56;31456013;28;20223;-59
2024/01/31 14:16:14;;;;;;;10.30;6.80;;;;;;;22.69;48.58;101942.56;31461332;28;20499;-56
2024/01/31 14:31:17;;;;;;;9.13;5.78;;;;;;;22.84;48.36;101912.13;31465329;28;20619;-55
2024/01/31 14:46:20;;;;;;;8.43;6.45;;;;;;;22.54;46.81;101897.56;31436251;28;20259;-59
2024/01/31 15:01:23;;;;;;;7.93;5.38;;;;;;;22.31;47.70;101882.56;31478659;28;20231;-52
2024/01/31 15:16:26;;;;;;;5.75;4.43;;;;;;;22.18;47.80;101876.97;31478324;28;20225;-55
2024/01/31 15:31:30;;;;;;;36.00;19.88;;;;;;;22.14;47.81;101839.06;31467730;28;20275;-60
2024/01/31 15:46:37;;;;;;;47.83;34.40;;;;;;;22.19;48.58;101836.13;31421115;28;20308;-53
2024/01/31 16:01:41;;;;;;;44.10;31.55;;;;;;;22.23;48.60;101831.44;31440320;28;20276;-59
2024/01/31 16:16:44;;;;;;;45.95;32.40;;;;;;;22.17;48.11;101818.59;31369241;28;20234;-53
2024/01/31 16:31:47;;;;;;;64.70;43.33;;;;;;;22.41;48.39;101821.88;31450673;28;20206;-58
2024/01/31 16:46:50;;;;;;;112.75;72.35;;;;;;;22.62;47.99;101822.97;31451538;28;20252;-59
2024/01/31 17:01:53;;;;;;;134.23;85.30;;;;;;;22.88;49.60;101822.28;31416801;28;20225;-62
2024/01/31 17:16:56;;;;;;;123.65;82.07;;;;;;;22.95;48.10;101820.66;31443412;28;20234;-62
2024/01/31 17:31:59;;;;;;;161.15;104.38;;;;;;;23.08;48.86;101782.75;31384139;28;20215;-57
2024/01/31 17:47:02;;;;;;;117.40;79.45;;;;;;;22.99;48.73;101741.31;31393227;28;20616;-57
2024/01/31 18:02:06;;;;;;;140.30;93.60;;;;;;;23.00;48.44;101708.91;31412621;28;20235;-59
2024/01/31 18:17:09;;;;;;;126.57;85.40;;;;;;;23.07;48.93;101658.97;31458094;28;20233;-60
2024/01/31 18:32:12;;;;;;;129.85;87.20;;;;;;;23.19;48.23;101643.28;31396565;28;20224;-62
2024/01/31 18:47:15;;;;;;;161.10;98.57;;;;;;;23.25;48.57;101647.59;31460857;28;20259;-62
2024/01/31 19:02:18;;;;;;;133.55;90.03;;;;;;;23.25;46.86;101654.09;31405499;28;20227;-58
2024/01/31 19:17:21;;;;;;;162.70;108.38;;;;;;;23.39;46.67;101643.41;31468227;28;20534;-58
2024/01/31 19:32:24;;;;;;;137.18;94.05;;;;;;;23.37;46.14;101634.38;31463587;28;20207;-59
2024/01/31 19:47:27;;;;;;;113.07;76.05;;;;;;;23.51;45.92;101603.78;31456684;28;20230;-59
2024/01/31 20:02:30;;;;;;;88.90;59.10;;;;;;;23.63;46.28;101576.69;31466719;28;20227;-61
2024/01/31 20:17:33;;;;;;;71.95;49.40;;;;;;;23.84;45.84;101541.47;31460546;28;20238;-59
2024/01/31 20:32:36;;;;;;;57.30;40.35;;;;;;;23.79;45.58;101537.97;31458190;28;20196;-57
2024/01/31 20:47:39;;;;;;;48.30;34.75;;;;;;;23.71;46.16;101513.28;31454676;28;20622;-60
2024/01/31 21:02:42;;;;;;;41.63;29.52;;;;;;;23.58;46.03;101466.88;31440840;28;20222;-58
2024/01/31 21:17:46;;;;;;;35.20;26.40;;;;;;;23.34;46.15;101430.53;31464000;28;20229;-61
2024/01/31 21:32:54;;;;;;;32.58;23.80;;;;;;;23.18;46.93;101415.22;31431723;28;20226;-59
2024/01/31 21:47:57;;;;;;;28.10;20.17;;;;;;;23.07;46.72;101405.44;31461561;28;20220;-59
2024/01/31 22:03:00;;;;;;;27.15;18.15;;;;;;;22.95;47.19;101406.16;31467823;28;20516;-61
2024/01/31 22:18:04;;;;;;;22.88;16.15;;;;;;;22.82;47.33;101406.34;31471664;28;20655;-59
2024/01/31 22:33:07;;;;;;;21.88;15.27;;;;;;;22.73;47.78;101414.84;31515194;28;20234;-58
2024/01/31 22:48:10;;;;;;;15.00;10.85;;;;;;;22.66;47.70;101400.34;31509614;28;20531;-58
2024/01/31 23:03:13;;;;;;;15.77;11.63;;;;;;;22.60;47.90;101398.84;31486310;28;20215;-60
2024/01/31 23:18:16;;;;;;;16.05;10.70;;;;;;;22.51;48.01;101367.69;31486837;28;20219;-59
2024/01/31 23:33:19;;;;;;;11.73;8.27;;;;;;;22.46;48.42;101367.84;31482323;28;20199;-57
2024/01/31 23:48:22;;;;;;;10.27;7.65;;;;;;;22.40;48.56;101361.53;31489914;28;20227;-63
